sensor_id;sensor_type;location;lat;lon;timestamp;pressure;altitude;pressure_sealevel;temperature;humidity
13422;BME280;6782;55.904;13.396;2023-05-25T00:01:01;101763.56;;;13.18;100.00
13422;BME280;6782;55.904;13.396;2023-05-25T00:03:49;101776.72;;;13.23;100.00
13422;BME280;6782;55.904;13.396;2023-05-25T00:06:37;101782.97;;;13.17;100.00
13422;BME280;6782;55.904;13.396;2023-05-25T00:09:25;101795.38;;;13.15;100.00
13422;BME280;6782;55.904;13.396;2023-05-25T00:12:15;101807.78;;;13.13;100.00
13422;BME280;6782;55.904;13.396;2023-05-25T00:15:02;101810.53;;;13.07;100.00
13422;BME280;6782;55.904;13.396;2023-05-25T00:17:49;101821.91;;;13.14;100.00
13422;BME280;6782;55.904;13.396;2023-05-25T00:20:39;101818.59;;;12.97;100.00
13422;BME280;6782;55.904;13.396;2023-05-25T00:23:26;101824.00;;;12.92;100.00
13422;BME280;6782;55.904;13.396;2023-05-25T00:26:13;101823.22;;;12.86;100.00
13422;BME280;6782;55.904;13.396;2023-05-25T00:29:03;101829.44;;;12.83;100.00
13422;BME280;6782;55.904;13.396;2023-05-25T00:31:50;101832.91;;;12.88;100.00
13422;BME280;6782;55.904;13.396;2023-05-25T00:34:37;101833.91;;;12.80;100.00
13422;BME280;6782;55.904;13.396;2023-05-25T00:37:24;101834.78;;;12.80;100.00
13422;BME280;6782;55.904;13.396;2023-05-25T00:40:13;101845.31;;;12.83;100.00
13422;BME280;6782;55.904;13.396;2023-05-25T00:43:02;101849.81;;;12.78;100.00
13422;BME280;6782;55.904;13.396;2023-05-25T00:45:50;101849.06;;;12.70;100.00
13422;BME280;6782;55.904;13.396;2023-05-25T00:48:38;101844.88;;;12.54;100.00
13422;BME280;6782;55.904;13.396;2023-05-25T00:51:26;101843.13;;;12.51;100.00
13422;BME280;6782;55.904;13.396;2023-05-25T00:54:15;101838.94;;;12.37;100.00
13422;BME280;6782;55.904;13.396;2023-05-25T00:57:05;101842.34;;;12.45;100.00
13422;BME280;6782;55.904;13.396;2023-05-25T00:59:53;101852.88;;;12.48;100.00
13422;BME280;6782;55.904;13.396;2023-05-25T01:02:43;101852.06;;;12.43;100.00
13422;BME280;6782;55.904;13.396;2023-05-25T01:05:33;101864.31;;;12.51;100.00
13422;BME280;6782;55.904;13.396;2023-05-25T01:08:23;101849.69;;;12.25;100.00
13422;BME280;6782;55.904;13.396;2023-05-25T01:11:13;101849.81;;;12.13;100.00
13422;BME280;6782;55.904;13.396;2023-05-25T01:14:01;101863.63;;;12.36;100.00
13422;BME280;6782;55.904;13.396;2023-05-25T01:16:50;101860.19;;;12.28;100.00
13422;BME280;6782;55.904;13.396;2023-05-25T01:19:41;101857.66;;;12.22;100.00
13422;BME280;6782;55.904;13.396;2023-05-25T01:22:35;101863.78;;;12.24;100.00
13422;BME280;6782;55.904;13.396;2023-05-25T01:25:26;101844.63;;;12.07;100.00
13422;BME280;6782;55.904;13.396;2023-05-25T01:28:20;101853.56;;;11.97;100.00
13422;BME280;6782;55.904;13.396;2023-05-25T01:31:08;101849.97;;;12.01;100.00
13422;BME280;6782;55.904;13.396;2023-05-25T01:33:56;101852.66;;;11.96;100.00
13422;BME280;6782;55.904;13.396;2023-05-25T01:36:44;101860.75;;;11.82;100.00
13422;BME280;6782;55.904;13.396;2023-05-25T01:39:32;101861.66;;;11.80;100.00
13422;BME280;6782;55.904;13.396;2023-05-25T01:42:19;101873.16;;;11.74;100.00
13422;BME280;6782;55.904;13.396;2023-05-25T01:45:08;101856.47;;;11.69;100.00
13422;BME280;6782;55.904;13.396;2023-05-25T01:48:02;101865.31;;;11.68;100.00
13422;BME280;6782;55.904;13.396;2023-05-25T01:50:55;101874.09;;;11.70;100.00
13422;BME280;6782;55.904;13.396;2023-05-25T01:53:48;101877.63;;;11.65;100.00
13422;BME280;6782;55.904;13.396;2023-05-25T01:56:39;101880.22;;;11.72;100.00
13422;BME280;6782;55.904;13.396;2023-05-25T01:59:31;101894.13;;;11.92;100.00
13422;BME280;6782;55.904;13.396;2023-05-25T02:02:19;101902.00;;;11.94;100.00
13422;BME280;6782;55.904;13.396;2023-05-25T02:05:08;101904.66;;;11.96;100.00
13422;BME280;6782;55.904;13.396;2023-05-25T02:07:56;101908.06;;;12.07;100.00
13422;BME280;6782;55.904;13.396;2023-05-25T02:10:43;101916.91;;;12.03;100.00
13422;BME280;6782;55.904;13.396;2023-05-25T02:13:32;101920.34;;;12.14;100.00
13422;BME280;6782;55.904;13.396;2023-05-25T02:16:19;101917.66;;;12.17;100.00
13422;BME280;6782;55.904;13.396;2023-05-25T02:19:07;101908.94;;;12.07;100.00
13422;BME280;6782;55.904;13.396;2023-05-25T02:21:56;101907.41;;;11.85;100.00
13422;BME280;6782;55.904;13.396;2023-05-25T02:24:44;101915.28;;;11.91;100.00
13422;BME280;6782;55.904;13.396;2023-05-25T02:27:32;101908.38;;;11.76;100.00
13422;BME280;6782;55.904;13.396;2023-05-25T02:30:21;101920.50;;;11.97;100.00
13422;BME280;6782;55.904;13.396;2023-05-25T02:33:08;101926.66;;;11.99;100.00
13422;BME280;6782;55.904;13.396;2023-05-25T02:35:55;101927.63;;;11.90;100.00
13422;BME280;6782;55.904;13.396;2023-05-25T02:38:42;101924.03;;;11.98;100.00
13422;BME280;6782;55.904;13.396;2023-05-25T02:41:32;101936.38;;;11.99;100.00
13422;BME280;6782;55.904;13.396;2023-05-25T02:44:19;101940.78;;;11.95;100.00
13422;BME280;6782;55.904;13.396;2023-05-25T02:47:08;101951.31;;;12.00;100.00
13422;BME280;6782;55.904;13.396;2023-05-25T02:49:55;101944.31;;;11.96;100.00
13422;BME280;6782;55.904;13.396;2023-05-25T02:52:43;101959.09;;;12.15;100.00
13422;BME280;6782;55.904;13.396;2023-05-25T02:55:30;101968.72;;;12.20;100.00
13422;BME280;6782;55.904;13.396;2023-05-25T02:58:18;101957.50;;;12.02;100.00
13422;BME280;6782;55.904;13.396;2023-05-25T03:01:05;101950.50;;;11.91;100.00
13422;BME280;6782;55.904;13.396;2023-05-25T03:03:56;101961.09;;;11.91;100.00
13422;BME280;6782;55.904;13.396;2023-05-25T03:06:43;101965.41;;;12.03;100.00
13422;BME280;6782;55.904;13.396;2023-05-25T03:09:31;101966.31;;;12.01;100.00
13422;BME280;6782;55.904;13.396;2023-05-25T03:12:18;101961.94;;;11.95;100.00
13422;BME280;6782;55.904;13.396;2023-05-25T03:15:06;101955.06;;;11.77;100.00
13422;BME280;6782;55.904;13.396;2023-05-25T03:17:57;101962.91;;;11.86;100.00
13422;BME280;6782;55.904;13.396;2023-05-25T03:20:47;101957.72;;;11.74;100.00
13422;BME280;6782;55.904;13.396;2023-05-25T03:23:34;101957.53;;;11.96;100.00
13422;BME280;6782;55.904;13.396;2023-05-25T03:26:22;101950.50;;;11.91;100.00
13422;BME280;6782;55.904;13.396;2023-05-25T03:29:10;101934.72;;;11.88;100.00
13422;BME280;6782;55.904;13.396;2023-05-25T03:31:57;101953.91;;;12.06;100.00
13422;BME280;6782;55.904;13.396;2023-05-25T03:34:45;101950.56;;;11.88;100.00
13422;BME280;6782;55.904;13.396;2023-05-25T03:37:33;101946.31;;;11.69;100.00
13422;BME280;6782;55.904;13.396;2023-05-25T03:40:20;101955.78;;;11.91;100.00
13422;BME280;6782;55.904;13.396;2023-05-25T03:43:07;101969.00;;;11.94;100.00
13422;BME280;6782;55.904;13.396;2023-05-25T03:45:54;101961.16;;;11.85;100.00
13422;BME280;6782;55.904;13.396;2023-05-25T03:48:42;101967.19;;;12.00;100.00
13422;BME280;6782;55.904;13.396;2023-05-25T03:51:29;101961.81;;;12.07;100.00
13422;BME280;6782;55.904;13.396;2023-05-25T03:54:17;101964.50;;;12.06;100.00
13422;BME280;6782;55.904;13.396;2023-05-25T03:57:05;101967.97;;;12.11;100.00
13422;BME280;6782;55.904;13.396;2023-05-25T03:59:52;101967.91;;;12.17;100.00
13422;BME280;6782;55.904;13.396;2023-05-25T04:02:40;101969.75;;;12.09;100.00
13422;BME280;6782;55.904;13.396;2023-05-25T04:05:27;101960.16;;;11.99;100.00
13422;BME280;6782;55.904;13.396;2023-05-25T04:08:16;101959.31;;;11.97;100.00
13422;BME280;6782;55.904;13.396;2023-05-25T04:11:05;101962.66;;;12.11;100.00
13422;BME280;6782;55.904;13.396;2023-05-25T04:13:52;101949.56;;;12.02;100.00
13422;BME280;6782;55.904;13.396;2023-05-25T04:16:39;101951.13;;;12.19;100.00
13422;BME280;6782;55.904;13.396;2023-05-25T04:19:26;101952.09;;;12.11;100.00
13422;BME280;6782;55.904;13.396;2023-05-25T04:22:13;101946.63;;;12.26;100.00
13422;BME280;6782;55.904;13.396;2023-05-25T04:25:01;101933.63;;;12.05;100.00
13422;BME280;6782;55.904;13.396;2023-05-25T04:27:50;101941.63;;;12.02;100.00
13422;BME280;6782;55.904;13.396;2023-05-25T04:30:38;101945.00;;;12.16;100.00
13422;BME280;6782;55.904;13.396;2023-05-25T04:33:26;101962.44;;;12.32;100.00
13422;BME280;6782;55.904;13.396;2023-05-25T04:36:14;101957.00;;;12.44;100.00
13422;BME280;6782;55.904;13.396;2023-05-25T04:39:01;101955.97;;;12.57;100.00
13422;BME280;6782;55.904;13.396;2023-05-25T04:41:48;101951.34;;;12.74;100.00
13422;BME280;6782;55.904;13.396;2023-05-25T04:44:38;101954.91;;;12.73;100.00
13422;BME280;6782;55.904;13.396;2023-05-25T04:47:25;101952.81;;;12.96;100.00
13422;BME280;6782;55.904;13.396;2023-05-25T04:50:12;101946.50;;;13.08;100.00
13422;BME280;6782;55.904;13.396;2023-05-25T04:53:00;101929.75;;;13.03;100.00
13422;BME280;6782;55.904;13.396;2023-05-25T04:55:47;101930.63;;;13.03;100.00
13422;BME280;6782;55.904;13.396;2023-05-25T04:58:36;101913.69;;;13.16;100.00
13422;BME280;6782;55.904;13.396;2023-05-25T05:01:25;101902.19;;;13.17;100.00
13422;BME280;6782;55.904;13.396;2023-05-25T05:04:13;101889.09;;;13.08;100.00
13422;BME280;6782;55.904;13.396;2023-05-25T05:07:02;101875.91;;;13.02;100.00
13422;BME280;6782;55.904;13.396;2023-05-25T05:09:50;101867.91;;;13.05;100.00
13422;BME280;6782;55.904;13.396;2023-05-25T05:12:37;101854.03;;;12.91;100.00
13422;BME280;6782;55.904;13.396;2023-05-25T05:15:25;101835.88;;;12.66;100.00
13422;BME280;6782;55.904;13.396;2023-05-25T05:18:14;101836.47;;;12.84;100.00
13422;BME280;6782;55.904;13.396;2023-05-25T05:21:01;101825.75;;;12.93;100.00
13422;BME280;6782;55.904;13.396;2023-05-25T05:23:49;101830.75;;;13.13;100.00
13422;BME280;6782;55.904;13.396;2023-05-25T05:26:38;101822.88;;;13.08;100.00
13422;BME280;6782;55.904;13.396;2023-05-25T05:29:26;101817.97;;;13.38;100.00
13422;BME280;6782;55.904;13.396;2023-05-25T05:32:14;101819.44;;;13.54;100.00
13422;BME280;6782;55.904;13.396;2023-05-25T05:35:03;101807.19;;;13.47;100.00
13422;BME280;6782;55.904;13.396;2023-05-25T05:37:50;101788.66;;;13.47;100.00
13422;BME280;6782;55.904;13.396;2023-05-25T05:40:37;101781.84;;;13.78;100.00
13422;BME280;6782;55.904;13.396;2023-05-25T05:43:24;101783.03;;;14.06;100.00
13422;BME280;6782;55.904;13.396;2023-05-25T05:46:12;101749.09;;;13.80;100.00
13422;BME280;6782;55.904;13.396;2023-05-25T05:48:59;101742.59;;;13.95;100.00
13422;BME280;6782;55.904;13.396;2023-05-25T05:51:47;101738.22;;;13.93;100.00
13422;BME280;6782;55.904;13.396;2023-05-25T05:54:35;101705.31;;;13.61;100.00
13422;BME280;6782;55.904;13.396;2023-05-25T05:57:22;101702.84;;;13.52;100.00
13422;BME280;6782;55.904;13.396;2023-05-25T06:00:11;101706.72;;;13.77;100.00
13422;BME280;6782;55.904;13.396;2023-05-25T06:02:58;101690.69;;;13.41;100.00
13422;BME280;6782;55.904;13.396;2023-05-25T06:05:46;101680.25;;;13.35;100.00
13422;BME280;6782;55.904;13.396;2023-05-25T06:08:34;101678.78;;;13.18;100.00
13422;BME280;6782;55.904;13.396;2023-05-25T06:11:22;101665.13;;;12.94;100.00
13422;BME280;6782;55.904;13.396;2023-05-25T06:14:09;101673.84;;;12.99;100.00
13422;BME280;6782;55.904;13.396;2023-05-25T06:16:57;101692.81;;;13.24;100.00
13422;BME280;6782;55.904;13.396;2023-05-25T06:19:45;101695.56;;;13.19;100.00
13422;BME280;6782;55.904;13.396;2023-05-25T06:22:32;101704.38;;;13.20;100.00
13422;BME280;6782;55.904;13.396;2023-05-25T06:25:21;101699.00;;;13.24;100.00
13422;BME280;6782;55.904;13.396;2023-05-25T06:28:08;101697.22;;;13.23;100.00
13422;BME280;6782;55.904;13.396;2023-05-25T06:30:55;101699.72;;;13.32;100.00
13422;BME280;6782;55.904;13.396;2023-05-25T06:33:43;101714.97;;;13.64;100.00
13422;BME280;6782;55.904;13.396;2023-05-25T06:36:30;101719.06;;;13.80;100.00
13422;BME280;6782;55.904;13.396;2023-05-25T06:39:18;101721.66;;;13.83;100.00
13422;BME280;6782;55.904;13.396;2023-05-25T06:42:07;101717.94;;;13.90;100.00
13422;BME280;6782;55.904;13.396;2023-05-25T06:44:54;101709.34;;;13.79;100.00
13422;BME280;6782;55.904;13.396;2023-05-25T06:47:41;101704.25;;;13.70;100.00
13422;BME280;6782;55.904;13.396;2023-05-25T06:50:28;101693.41;;;13.39;100.00
13422;BME280;6782;55.904;13.396;2023-05-25T06:53:15;101688.03;;;13.42;100.00
13422;BME280;6782;55.904;13.396;2023-05-25T06:56:03;101708.09;;;13.54;100.00
13422;BME280;6782;55.904;13.396;2023-05-25T06:58:52;101708.31;;;13.45;100.00
13422;BME280;6782;55.904;13.396;2023-05-25T07:01:39;101721.03;;;13.69;100.00
13422;BME280;6782;55.904;13.396;2023-05-25T07:04:26;101730.03;;;14.03;100.00
13422;BME280;6782;55.904;13.396;2023-05-25T07:07:14;101741.63;;;14.40;100.00
13422;BME280;6782;55.904;13.396;2023-05-25T07:10:03;101723.13;;;14.36;100.00
13422;BME280;6782;55.904;13.396;2023-05-25T07:12:50;101718.19;;;14.58;100.00
13422;BME280;6782;55.904;13.396;2023-05-25T07:15:40;101717.34;;;14.91;100.00
13422;BME280;6782;55.904;13.396;2023-05-25T07:18:27;101703.81;;;15.01;100.00
13422;BME280;6782;55.904;13.396;2023-05-25T07:21:15;101679.69;;;15.09;100.00
13422;BME280;6782;55.904;13.396;2023-05-25T07:24:02;101682.91;;;15.52;100.00
13422;BME280;6782;55.904;13.396;2023-05-25T07:26:51;101654.84;;;15.72;100.00
13422;BME280;6782;55.904;13.396;2023-05-25T07:29:38;101640.09;;;15.91;100.00
13422;BME280;6782;55.904;13.396;2023-05-25T07:32:27;101620.94;;;16.07;100.00
13422;BME280;6782;55.904;13.396;2023-05-25T07:35:14;101597.03;;;16.06;100.00
13422;BME280;6782;55.904;13.396;2023-05-25T07:38:03;101557.72;;;15.88;100.00
13422;BME280;6782;55.904;13.396;2023-05-25T07:40:50;101569.25;;;16.14;100.00
13422;BME280;6782;55.904;13.396;2023-05-25T07:43:37;101557.13;;;16.32;100.00
13422;BME280;6782;55.904;13.396;2023-05-25T07:46:25;101530.88;;;16.46;100.00
13422;BME280;6782;55.904;13.396;2023-05-25T07:49:13;101507.03;;;16.43;100.00
13422;BME280;6782;55.904;13.396;2023-05-25T07:52:02;101463.97;;;16.06;100.00
13422;BME280;6782;55.904;13.396;2023-05-25T07:54:50;101496.50;;;16.40;100.00
13422;BME280;6782;55.904;13.396;2023-05-25T07:57:38;101492.56;;;16.75;100.00
13422;BME280;6782;55.904;13.396;2023-05-25T08:00:25;101452.25;;;16.36;100.00
13422;BME280;6782;55.904;13.396;2023-05-25T08:03:12;101447.81;;;16.61;100.00
13422;BME280;6782;55.904;13.396;2023-05-25T08:06:01;101450.81;;;16.75;100.00
13422;BME280;6782;55.904;13.396;2023-05-25T08:08:48;101426.03;;;16.73;100.00
13422;BME280;6782;55.904;13.396;2023-05-25T08:11:36;101396.81;;;16.47;100.00
13422;BME280;6782;55.904;13.396;2023-05-25T08:14:24;101408.81;;;16.82;100.00
13422;BME280;6782;55.904;13.396;2023-05-25T08:17:11;101390.44;;;16.98;100.00
13422;BME280;6782;55.904;13.396;2023-05-25T08:19:58;101334.38;;;17.01;100.00
13422;BME280;6782;55.904;13.396;2023-05-25T08:22:47;101257.69;;;16.87;100.00
13422;BME280;6782;55.904;13.396;2023-05-25T08:25:34;101212.44;;;16.85;100.00
13422;BME280;6782;55.904;13.396;2023-05-25T08:28:21;101159.91;;;16.89;100.00
13422;BME280;6782;55.904;13.396;2023-05-25T08:31:08;101143.81;;;17.11;100.00
13422;BME280;6782;55.904;13.396;2023-05-25T08:33:56;101125.56;;;17.22;100.00
13422;BME280;6782;55.904;13.396;2023-05-25T08:36:43;101035.50;;;17.10;100.00
13422;BME280;6782;55.904;13.396;2023-05-25T08:39:32;101032.47;;;17.36;100.00
13422;BME280;6782;55.904;13.396;2023-05-25T08:42:20;100928.31;;;17.22;100.00
13422;BME280;6782;55.904;13.396;2023-05-25T08:45:08;100914.53;;;17.31;100.00
13422;BME280;6782;55.904;13.396;2023-05-25T08:47:58;100936.44;;;17.19;100.00
13422;BME280;6782;55.904;13.396;2023-05-25T08:50:46;100917.88;;;16.99;100.00
13422;BME280;6782;55.904;13.396;2023-05-25T08:53:35;100908.78;;;17.03;100.00
13422;BME280;6782;55.904;13.396;2023-05-25T08:56:26;100930.38;;;17.34;100.00
13422;BME280;6782;55.904;13.396;2023-05-25T08:59:25;100873.53;;;17.33;100.00
13422;BME280;6782;55.904;13.396;2023-05-25T09:02:21;101014.88;;;17.88;100.00
13422;BME280;6782;55.904;13.396;2023-05-25T09:05:10;100859.25;;;17.53;100.00
13422;BME280;6782;55.904;13.396;2023-05-25T09:07:59;100832.25;;;17.59;100.00
13422;BME280;6782;55.904;13.396;2023-05-25T09:10:47;100811.00;;;17.75;100.00
13422;BME280;6782;55.904;13.396;2023-05-25T09:13:37;100713.25;;;17.74;100.00
13422;BME280;6782;55.904;13.396;2023-05-25T09:16:26;100676.78;;;17.74;100.00
13422;BME280;6782;55.904;13.396;2023-05-25T09:19:13;100619.50;;;18.28;100.00
13422;BME280;6782;55.904;13.396;2023-05-25T09:22:01;100412.81;;;18.17;100.00
13422;BME280;6782;55.904;13.396;2023-05-25T09:24:48;100153.38;;;18.11;100.00
13422;BME280;6782;55.904;13.396;2023-05-25T09:27:36;99976.41;;;17.84;100.00
13422;BME280;6782;55.904;13.396;2023-05-25T09:30:25;99793.63;;;18.04;100.00
13422;BME280;6782;55.904;13.396;2023-05-25T09:33:17;99355.00;;;17.72;100.00
13422;BME280;6782;55.904;13.396;2023-05-25T09:36:05;99024.94;;;17.86;100.00
13422;BME280;6782;55.904;13.396;2023-05-25T09:38:53;98941.31;;;18.19;100.00
13422;BME280;6782;55.904;13.396;2023-05-25T09:41:41;98552.63;;;18.20;99.29
13422;BME280;6782;55.904;13.396;2023-05-25T09:44:29;98198.13;;;18.17;95.37
13422;BME280;6782;55.904;13.396;2023-05-25T09:47:18;98059.19;;;18.00;90.98
13422;BME280;6782;55.904;13.396;2023-05-25T09:50:07;100802.56;;;18.17;91.27
13422;BME280;6782;55.904;13.396;2023-05-25T09:52:57;100860.69;;;17.94;86.77
13422;BME280;6782;55.904;13.396;2023-05-25T09:55:47;100910.44;;;17.95;86.85
13422;BME280;6782;55.904;13.396;2023-05-25T09:58:35;101048.44;;;18.10;89.12
13422;BME280;6782;55.904;13.396;2023-05-25T10:01:22;101073.63;;;18.41;89.66
13422;BME280;6782;55.904;13.396;2023-05-25T10:04:14;100934.44;;;17.78;84.71
13422;BME280;6782;55.904;13.396;2023-05-25T10:07:03;100915.75;;;17.61;83.10
13422;BME280;6782;55.904;13.396;2023-05-25T10:09:51;101042.81;;;17.81;84.13
13422;BME280;6782;55.904;13.396;2023-05-25T10:12:41;101084.75;;;18.14;85.64
13422;BME280;6782;55.904;13.396;2023-05-25T10:15:29;101072.59;;;17.90;86.43
13422;BME280;6782;55.904;13.396;2023-05-25T10:18:19;101113.97;;;17.99;87.46
13422;BME280;6782;55.904;13.396;2023-05-25T10:21:10;101191.31;;;18.00;89.25
13422;BME280;6782;55.904;13.396;2023-05-25T10:24:03;101219.59;;;18.04;89.98
13422;BME280;6782;55.904;13.396;2023-05-25T10:26:53;101184.66;;;17.90;89.20
13422;BME280;6782;55.904;13.396;2023-05-25T10:29:47;101151.03;;;17.68;89.23
13422;BME280;6782;55.904;13.396;2023-05-25T10:32:36;101155.25;;;17.73;88.48
13422;BME280;6782;55.904;13.396;2023-05-25T10:35:23;101079.66;;;17.54;86.70
13422;BME280;6782;55.904;13.396;2023-05-25T10:38:12;101232.44;;;18.15;88.99
13422;BME280;6782;55.904;13.396;2023-05-25T10:41:02;101175.66;;;18.11;88.28
13422;BME280;6782;55.904;13.396;2023-05-25T10:43:50;101201.84;;;18.03;88.29
13422;BME280;6782;55.904;13.396;2023-05-25T10:46:40;101144.13;;;17.64;88.33
13422;BME280;6782;55.904;13.396;2023-05-25T10:49:31;101258.97;;;17.99;90.88
13422;BME280;6782;55.904;13.396;2023-05-25T10:52:19;101253.97;;;18.31;91.01
13422;BME280;6782;55.904;13.396;2023-05-25T10:55:08;101153.94;;;18.00;88.37
13422;BME280;6782;55.904;13.396;2023-05-25T10:58:10;101191.59;;;18.50;87.39
13422;BME280;6782;55.904;13.396;2023-05-25T11:00:59;101047.41;;;17.96;81.93
13422;BME280;6782;55.904;13.396;2023-05-25T11:03:48;100984.28;;;18.48;76.38
13422;BME280;6782;55.904;13.396;2023-05-25T11:07:03;101012.84;;;18.63;73.79
13422;BME280;6782;55.904;13.396;2023-05-25T11:09:56;100959.72;;;18.40;69.27
13422;BME280;6782;55.904;13.396;2023-05-25T11:12:46;101017.47;;;18.59;67.72
13422;BME280;6782;55.904;13.396;2023-05-25T11:15:33;101090.88;;;18.17;68.67
13422;BME280;6782;55.904;13.396;2023-05-25T11:18:20;101191.47;;;17.97;70.65
13422;BME280;6782;55.904;13.396;2023-05-25T11:21:12;101261.72;;;18.17;73.70
13422;BME280;6782;55.904;13.396;2023-05-25T11:24:00;101277.47;;;18.23;74.05
13422;BME280;6782;55.904;13.396;2023-05-25T11:26:53;101259.56;;;18.25;74.48
13422;BME280;6782;55.904;13.396;2023-05-25T11:29:43;101285.69;;;17.99;75.91
13422;BME280;6782;55.904;13.396;2023-05-25T11:32:30;101357.38;;;18.27;78.45
13422;BME280;6782;55.904;13.396;2023-05-25T11:35:17;101346.13;;;18.00;79.36
13422;BME280;6782;55.904;13.396;2023-05-25T11:38:05;101438.38;;;18.48;81.94
13422;BME280;6782;55.904;13.396;2023-05-25T11:40:52;101280.06;;;17.25;80.01
13422;BME280;6782;55.904;13.396;2023-05-25T11:43:39;101368.31;;;17.39;82.17
13422;BME280;6782;55.904;13.396;2023-05-25T11:46:29;101408.16;;;17.65;83.09
13422;BME280;6782;55.904;13.396;2023-05-25T11:49:20;101474.28;;;18.21;85.61
13422;BME280;6782;55.904;13.396;2023-05-25T11:52:07;101502.22;;;18.54;87.19
13422;BME280;6782;55.904;13.396;2023-05-25T11:54:54;101462.94;;;18.56;85.66
13422;BME280;6782;55.904;13.396;2023-05-25T11:57:42;101317.59;;;18.21;81.39
13422;BME280;6782;55.904;13.396;2023-05-25T12:00:29;101277.28;;;17.88;80.00
13422;BME280;6782;55.904;13.396;2023-05-25T12:03:31;101256.25;;;18.20;76.38
13422;BME280;6782;55.904;13.396;2023-05-25T12:06:25;101164.47;;;17.66;71.94
13422;BME280;6782;55.904;13.396;2023-05-25T12:09:18;101193.31;;;17.77;71.75
13422;BME280;6782;55.904;13.396;2023-05-25T12:12:07;101197.28;;;17.68;71.68
13422;BME280;6782;55.904;13.396;2023-05-25T12:14:54;101271.66;;;17.94;72.65
13422;BME280;6782;55.904;13.396;2023-05-25T12:17:42;101257.81;;;17.46;74.04
13422;BME280;6782;55.904;13.396;2023-05-25T12:20:31;101310.88;;;17.52;75.31
13422;BME280;6782;55.904;13.396;2023-05-25T12:23:18;101218.59;;;17.48;71.65
13422;BME280;6782;55.904;13.396;2023-05-25T12:26:10;101180.63;;;17.23;68.83
13422;BME280;6782;55.904;13.396;2023-05-25T12:28:58;101294.44;;;17.63;72.79
13422;BME280;6782;55.904;13.396;2023-05-25T12:31:46;101253.97;;;17.53;73.10
13422;BME280;6782;55.904;13.396;2023-05-25T12:34:33;101308.28;;;17.91;73.25
13422;BME280;6782;55.904;13.396;2023-05-25T12:37:22;101343.44;;;18.21;73.77
13422;BME280;6782;55.904;13.396;2023-05-25T12:40:17;101344.59;;;18.54;73.83
13422;BME280;6782;55.904;13.396;2023-05-25T12:43:05;101259.94;;;17.78;73.00
13422;BME280;6782;55.904;13.396;2023-05-25T12:45:52;101383.19;;;18.47;77.46
13422;BME280;6782;55.904;13.396;2023-05-25T12:48:39;101258.41;;;18.11;72.50
13422;BME280;6782;55.904;13.396;2023-05-25T12:51:36;101198.47;;;17.41;70.07
13422;BME280;6782;55.904;13.396;2023-05-25T12:54:45;101324.03;;;17.97;72.97
13422;BME280;6782;55.904;13.396;2023-05-25T12:57:34;101326.06;;;17.92;73.13
13422;BME280;6782;55.904;13.396;2023-05-25T13:00:23;101293.63;;;17.81;72.67
13422;BME280;6782;55.904;13.396;2023-05-25T13:03:11;101312.09;;;17.65;73.98
13422;BME280;6782;55.904;13.396;2023-05-25T13:05:59;101343.25;;;17.65;73.71
13422;BME280;6782;55.904;13.396;2023-05-25T13:08:46;101281.84;;;17.66;72.30
13422;BME280;6782;55.904;13.396;2023-05-25T13:11:36;101282.22;;;17.97;71.28
13422;BME280;6782;55.904;13.396;2023-05-25T13:14:24;101317.72;;;17.79;72.38
13422;BME280;6782;55.904;13.396;2023-05-25T13:17:11;101370.47;;;17.93;74.32
13422;BME280;6782;55.904;13.396;2023-05-25T13:19:58;101365.75;;;17.99;75.01
13422;BME280;6782;55.904;13.396;2023-05-25T13:22:47;101373.59;;;18.23;74.42
13422;BME280;6782;55.904;13.396;2023-05-25T13:25:34;101358.91;;;18.33;74.66
13422;BME280;6782;55.904;13.396;2023-05-25T13:28:23;101414.59;;;18.22;76.60
13422;BME280;6782;55.904;13.396;2023-05-25T13:31:11;101401.88;;;18.27;75.84
13422;BME280;6782;55.904;13.396;2023-05-25T13:33:58;101309.69;;;17.99;73.41
13422;BME280;6782;55.904;13.396;2023-05-25T13:36:45;101316.41;;;17.69;72.98
13422;BME280;6782;55.904;13.396;2023-05-25T13:39:33;101306.38;;;17.74;72.63
13422;BME280;6782;55.904;13.396;2023-05-25T13:42:20;101296.88;;;17.87;71.67
13422;BME280;6782;55.904;13.396;2023-05-25T13:45:09;101205.63;;;17.40;67.98
13422;BME280;6782;55.904;13.396;2023-05-25T13:47:56;101190.75;;;17.15;66.69
13422;BME280;6782;55.904;13.396;2023-05-25T13:50:44;101282.75;;;17.85;67.84
13422;BME280;6782;55.904;13.396;2023-05-25T13:53:31;101196.44;;;17.86;64.51
13422;BME280;6782;55.904;13.396;2023-05-25T13:56:18;101151.84;;;17.49;63.32
13422;BME280;6782;55.904;13.396;2023-05-25T13:59:06;101145.50;;;17.52;61.80
13422;BME280;6782;55.904;13.396;2023-05-25T14:01:55;101128.78;;;16.89;62.02
13422;BME280;6782;55.904;13.396;2023-05-25T14:04:43;101169.88;;;17.04;62.36
13422;BME280;6782;55.904;13.396;2023-05-25T14:07:30;101152.63;;;16.92;61.54
13422;BME280;6782;55.904;13.396;2023-05-25T14:10:18;101194.75;;;17.25;62.14
13422;BME280;6782;55.904;13.396;2023-05-25T14:13:05;101225.91;;;17.83;62.23
13422;BME280;6782;55.904;13.396;2023-05-25T14:15:52;101159.28;;;17.63;60.31
13422;BME280;6782;55.904;13.396;2023-05-25T14:18:41;101143.34;;;17.80;60.20
13422;BME280;6782;55.904;13.396;2023-05-25T14:21:28;101211.81;;;17.41;61.68
13422;BME280;6782;55.904;13.396;2023-05-25T14:24:16;101253.00;;;17.34;62.91
13422;BME280;6782;55.904;13.396;2023-05-25T14:27:04;101157.81;;;17.16;60.01
13422;BME280;6782;55.904;13.396;2023-05-25T14:29:51;101188.47;;;17.66;59.87
13422;BME280;6782;55.904;13.396;2023-05-25T14:32:38;101265.09;;;17.63;63.27